sensor_id;sensor_type;location;lat;lon;timestamp;pressure;altitude;pressure_sealevel;temperature;humidity
70103;BME280;57470;50.034;15.256;2023-07-16T00:00:11;98722.38;;;26.45;73.16
70103;BME280;57470;50.034;15.256;2023-07-16T00:02:38;98722.41;;;26.64;72.68
70103;BME280;57470;50.034;15.256;2023-07-16T00:05:05;98702.22;;;26.28;74.29
70103;BME280;57470;50.034;15.256;2023-07-16T00:07:32;98698.13;;;26.37;73.50
70103;BME280;57470;50.034;15.256;2023-07-16T00:09:58;98708.69;;;26.52;73.10
70103;BME280;57470;50.034;15.256;2023-07-16T00:12:24;98705.88;;;26.59;72.90
70103;BME280;57470;50.034;15.256;2023-07-16T00:14:49;98717.69;;;26.52;73.08
70103;BME280;57470;50.034;15.256;2023-07-16T00:17:15;98696.28;;;26.06;74.99
70103;BME280;57470;50.034;15.256;2023-07-16T00:19:41;98690.91;;;25.75;76.48
70103;BME280;57470;50.034;15.256;2023-07-16T00:22:06;98682.69;;;25.82;76.47
70103;BME280;57470;50.034;15.256;2023-07-16T00:24:32;98690.41;;;25.85;76.22
70103;BME280;57470;50.034;15.256;2023-07-16T00:26:57;98714.66;;;26.17;74.83
70103;BME280;57470;50.034;15.256;2023-07-16T00:29:23;98733.03;;;26.29;74.61
70103;BME280;57470;50.034;15.256;2023-07-16T00:31:49;98729.72;;;26.45;74.18
70103;BME280;57470;50.034;15.256;2023-07-16T00:34:16;98722.53;;;26.50;73.55
70103;BME280;57470;50.034;15.256;2023-07-16T00:36:43;98733.06;;;26.47;74.04
70103;BME280;57470;50.034;15.256;2023-07-16T00:39:10;98741.00;;;26.48;73.56
70103;BME280;57470;50.034;15.256;2023-07-16T00:41:37;98738.56;;;26.15;74.86
70103;BME280;57470;50.034;15.256;2023-07-16T00:44:03;98725.50;;;25.99;75.42
70103;BME280;57470;50.034;15.256;2023-07-16T00:46:28;98719.94;;;26.12;74.82
70103;BME280;57470;50.034;15.256;2023-07-16T00:48:55;98729.00;;;26.06;75.05
70103;BME280;57470;50.034;15.256;2023-07-16T00:51:22;98739.56;;;25.96;75.83
70103;BME280;57470;50.034;15.256;2023-07-16T00:53:50;98739.22;;;25.86;76.00
70103;BME280;57470;50.034;15.256;2023-07-16T00:56:18;98733.97;;;25.53;77.27
70103;BME280;57470;50.034;15.256;2023-07-16T00:58:45;98727.94;;;25.07;79.37
70103;BME280;57470;50.034;15.256;2023-07-16T01:01:12;98725.44;;;25.43;77.91
70103;BME280;57470;50.034;15.256;2023-07-16T01:03:39;98734.00;;;25.47;77.56
70103;BME280;57470;50.034;15.256;2023-07-16T01:06:25;98741.66;;;25.31;78.67
70103;BME280;57470;50.034;15.256;2023-07-16T01:08:58;98738.03;;;25.37;78.62
70103;BME280;57470;50.034;15.256;2023-07-16T01:11:26;98726.44;;;25.11;79.40
70103;BME280;57470;50.034;15.256;2023-07-16T01:13:54;98708.81;;;24.62;81.01
70103;BME280;57470;50.034;15.256;2023-07-16T01:16:24;98699.16;;;24.73;81.54
70103;BME280;57470;50.034;15.256;2023-07-16T01:18:51;98699.53;;;24.96;80.78
70103;BME280;57470;50.034;15.256;2023-07-16T01:21:23;98701.09;;;25.17;80.17
70103;BME280;57470;50.034;15.256;2023-07-16T01:31:50;98730.19;;;25.16;80.17
70103;BME280;57470;50.034;15.256;2023-07-16T01:34:16;98711.00;;;25.04;80.30
70103;BME280;57470;50.034;15.256;2023-07-16T01:36:43;98716.66;;;24.96;80.88
70103;BME280;57470;50.034;15.256;2023-07-16T01:39:09;98713.47;;;25.06;80.10
70103;BME280;57470;50.034;15.256;2023-07-16T01:41:34;98719.34;;;25.10;80.72
70103;BME280;57470;50.034;15.256;2023-07-16T01:44:00;98728.25;;;25.30;79.47
70103;BME280;57470;50.034;15.256;2023-07-16T01:46:26;98723.66;;;25.24;79.79
70103;BME280;57470;50.034;15.256;2023-07-16T01:48:51;98736.78;;;25.33;79.57
70103;BME280;57470;50.034;15.256;2023-07-16T01:51:17;98748.41;;;25.54;78.83
70103;BME280;57470;50.034;15.256;2023-07-16T01:53:42;98758.47;;;25.53;77.99
70103;BME280;57470;50.034;15.256;2023-07-16T01:56:08;98778.16;;;25.62;78.72
70103;BME280;57470;50.034;15.256;2023-07-16T01:58:33;98814.88;;;25.46;79.02
70103;BME280;57470;50.034;15.256;2023-07-16T02:00:59;98862.84;;;25.47;79.33
70103;BME280;57470;50.034;15.256;2023-07-16T02:03:24;98884.19;;;25.43;79.60
70103;BME280;57470;50.034;15.256;2023-07-16T02:05:50;98869.56;;;25.38;80.18
70103;BME280;57470;50.034;15.256;2023-07-16T02:08:17;98840.34;;;25.14;80.99
70103;BME280;57470;50.034;15.256;2023-07-16T02:10:43;98841.94;;;25.34;79.77
70103;BME280;57470;50.034;15.256;2023-07-16T02:13:09;98864.13;;;25.38;79.91
70103;BME280;57470;50.034;15.256;2023-07-16T02:15:35;98879.63;;;25.37;79.49
70103;BME280;57470;50.034;15.256;2023-07-16T02:18:00;98852.94;;;24.36;84.05
70103;BME280;57470;50.034;15.256;2023-07-16T02:20:25;98814.06;;;24.42;83.73
70103;BME280;57470;50.034;15.256;2023-07-16T02:22:51;98829.69;;;24.79;81.77
70103;BME280;57470;50.034;15.256;2023-07-16T02:25:17;98887.03;;;24.78;82.10
70103;BME280;57470;50.034;15.256;2023-07-16T02:27:42;98883.06;;;24.74;82.10
70103;BME280;57470;50.034;15.256;2023-07-16T02:30:13;98818.34;;;23.90;86.04
70103;BME280;57470;50.034;15.256;2023-07-16T02:32:39;98830.34;;;24.35;84.32
70103;BME280;57470;50.034;15.256;2023-07-16T02:35:04;98906.91;;;24.39;84.12
70103;BME280;57470;50.034;15.256;2023-07-16T02:37:30;98916.69;;;24.26;84.49
70103;BME280;57470;50.034;15.256;2023-07-16T02:39:55;98859.13;;;24.03;85.40
70103;BME280;57470;50.034;15.256;2023-07-16T02:42:21;98857.13;;;24.38;83.78
70103;BME280;57470;50.034;15.256;2023-07-16T02:44:46;98911.47;;;24.25;84.37
70103;BME280;57470;50.034;15.256;2023-07-16T02:47:11;98895.16;;;24.25;84.62
70103;BME280;57470;50.034;15.256;2023-07-16T02:49:38;98885.16;;;24.32;84.10
70103;BME280;57470;50.034;15.256;2023-07-16T02:52:03;98916.97;;;24.51;83.41
70103;BME280;57470;50.034;15.256;2023-07-16T02:54:29;98916.94;;;24.64;82.73
70103;BME280;57470;50.034;15.256;2023-07-16T02:56:54;98911.91;;;24.55;83.51
70103;BME280;57470;50.034;15.256;2023-07-16T02:59:19;98930.53;;;24.71;82.02
70103;BME280;57470;50.034;15.256;2023-07-16T03:01:45;98924.47;;;24.56;83.12
70103;BME280;57470;50.034;15.256;2023-07-16T03:04:10;98929.91;;;24.62;83.07
70103;BME280;57470;50.034;15.256;2023-07-16T03:06:36;98931.38;;;24.65;82.72
70103;BME280;57470;50.034;15.256;2023-07-16T03:09:01;98939.53;;;24.72;81.94
70103;BME280;57470;50.034;15.256;2023-07-16T03:11:27;98945.41;;;24.68;82.21
70103;BME280;57470;50.034;15.256;2023-07-16T03:13:52;98935.53;;;24.35;83.62
70103;BME280;57470;50.034;15.256;2023-07-16T03:16:17;98935.75;;;24.53;82.84
70103;BME280;57470;50.034;15.256;2023-07-16T03:18:44;98947.47;;;24.53;83.26
70103;BME280;57470;50.034;15.256;2023-07-16T03:21:10;98951.22;;;24.39;83.33
70103;BME280;57470;50.034;15.256;2023-07-16T03:23:36;98960.22;;;24.40;83.25
70103;BME280;57470;50.034;15.256;2023-07-16T03:26:01;98967.50;;;24.26;83.95
70103;BME280;57470;50.034;15.256;2023-07-16T03:28:26;98971.69;;;24.35;83.79
70103;BME280;57470;50.034;15.256;2023-07-16T03:30:52;98972.13;;;24.32;83.75
70103;BME280;57470;50.034;15.256;2023-07-16T03:33:19;98981.56;;;24.49;82.39
70103;BME280;57470;50.034;15.256;2023-07-16T03:35:45;98983.91;;;24.59;81.82
70103;BME280;57470;50.034;15.256;2023-07-16T03:38:11;98986.16;;;24.42;81.63
70103;BME280;57470;50.034;15.256;2023-07-16T03:40:37;98981.72;;;24.28;82.24
70103;BME280;57470;50.034;15.256;2023-07-16T03:43:03;98974.22;;;24.37;80.64
70103;BME280;57470;50.034;15.256;2023-07-16T03:45:28;98979.41;;;24.25;77.72
70103;BME280;57470;50.034;15.256;2023-07-16T03:47:54;98976.53;;;24.40;76.20
70103;BME280;57470;50.034;15.256;2023-07-16T03:50:19;98970.03;;;24.34;73.84
70103;BME280;57470;50.034;15.256;2023-07-16T03:52:45;98977.97;;;24.36;73.36
70103;BME280;57470;50.034;15.256;2023-07-16T03:55:10;99000.34;;;24.31;72.90
70103;BME280;57470;50.034;15.256;2023-07-16T03:57:36;99008.53;;;24.38;72.20
70103;BME280;57470;50.034;15.256;2023-07-16T04:00:05;99021.66;;;24.34;72.16
70103;BME280;57470;50.034;15.256;2023-07-16T04:02:36;99023.00;;;24.64;71.17
70103;BME280;57470;50.034;15.256;2023-07-16T04:05:02;99025.09;;;24.62;70.67
70103;BME280;57470;50.034;15.256;2023-07-16T04:07:28;99023.31;;;24.96;69.70
70103;BME280;57470;50.034;15.256;2023-07-16T04:09:53;99034.41;;;25.01;69.76
70103;BME280;57470;50.034;15.256;2023-07-16T04:12:18;99053.03;;;25.04;69.74
70103;BME280;57470;50.034;15.256;2023-07-16T04:14:44;99052.19;;;24.97;69.67
70103;BME280;57470;50.034;15.256;2023-07-16T04:17:09;99060.56;;;25.02;70.38
70103;BME280;57470;50.034;15.256;2023-07-16T04:19:35;99062.03;;;25.11;69.92
70103;BME280;57470;50.034;15.256;2023-07-16T04:22:01;99065.59;;;25.12;70.31
70103;BME280;57470;50.034;15.256;2023-07-16T04:24:26;99072.28;;;25.09;70.19
70103;BME280;57470;50.034;15.256;2023-07-16T04:26:54;99079.81;;;25.07;70.63
70103;BME280;57470;50.034;15.256;2023-07-16T04:29:19;99094.06;;;25.02;70.67
70103;BME280;57470;50.034;15.256;2023-07-16T04:31:45;99092.88;;;24.64;72.22
70103;BME280;57470;50.034;15.256;2023-07-16T04:34:10;99104.34;;;24.53;72.90
70103;BME280;57470;50.034;15.256;2023-07-16T04:36:38;99118.19;;;24.58;72.83
70103;BME280;57470;50.034;15.256;2023-07-16T04:39:04;99121.38;;;24.68;72.81
70103;BME280;57470;50.034;15.256;2023-07-16T04:41:30;99126.41;;;24.78;72.70
70103;BME280;57470;50.034;15.256;2023-07-16T04:43:55;99125.97;;;24.67;73.76
70103;BME280;57470;50.034;15.256;2023-07-16T04:46:21;99136.19;;;24.59;73.50
70103;BME280;57470;50.034;15.256;2023-07-16T04:48:46;99144.91;;;24.48;73.75
70103;BME280;57470;50.034;15.256;2023-07-16T04:51:11;99151.41;;;24.53;73.79
70103;BME280;57470;50.034;15.256;2023-07-16T04:53:37;99149.81;;;24.65;73.70
70103;BME280;57470;50.034;15.256;2023-07-16T04:56:02;99161.50;;;24.59;73.50
70103;BME280;57470;50.034;15.256;2023-07-16T04:58:28;99180.53;;;24.59;73.47
70103;BME280;57470;50.034;15.256;2023-07-16T05:00:53;99200.44;;;24.66;73.02
70103;BME280;57470;50.034;15.256;2023-07-16T05:03:18;99199.63;;;24.73;72.74
70103;BME280;57470;50.034;15.256;2023-07-16T05:05:44;99213.47;;;24.78;72.69
70103;BME280;57470;50.034;15.256;2023-07-16T05:08:09;99218.28;;;24.76;72.10
70103;BME280;57470;50.034;15.256;2023-07-16T05:10:35;99224.91;;;24.66;71.73
70103;BME280;57470;50.034;15.256;2023-07-16T05:13:00;99244.91;;;24.87;71.45
70103;BME280;57470;50.034;15.256;2023-07-16T05:15:29;99263.00;;;24.66;71.45
70103;BME280;57470;50.034;15.256;2023-07-16T05:17:57;99271.00;;;24.75;71.39
70103;BME280;57470;50.034;15.256;2023-07-16T05:20:23;99275.22;;;24.84;71.14
70103;BME280;57470;50.034;15.256;2023-07-16T05:22:48;99277.81;;;24.92;71.37
70103;BME280;57470;50.034;15.256;2023-07-16T05:25:13;99287.53;;;24.80;70.72
70103;BME280;57470;50.034;15.256;2023-07-16T05:27:39;99296.72;;;24.72;70.43
70103;BME280;57470;50.034;15.256;2023-07-16T05:30:05;99297.81;;;24.78;70.42
70103;BME280;57470;50.034;15.256;2023-07-16T05:32:30;99301.56;;;24.77;70.09
70103;BME280;57470;50.034;15.256;2023-07-16T05:34:55;99295.22;;;24.69;70.28
70103;BME280;57470;50.034;15.256;2023-07-16T05:37:21;99306.53;;;24.66;71.63
70103;BME280;57470;50.034;15.256;2023-07-16T05:39:46;99298.94;;;24.62;72.70
70103;BME280;57470;50.034;15.256;2023-07-16T05:42:11;99306.19;;;24.48;72.90
70103;BME280;57470;50.034;15.256;2023-07-16T05:44:37;99307.56;;;24.38;73.83
70103;BME280;57470;50.034;15.256;2023-07-16T05:47:02;99315.53;;;24.39;74.50
70103;BME280;57470;50.034;15.256;2023-07-16T05:49:28;99318.09;;;24.47;74.77
70103;BME280;57470;50.034;15.256;2023-07-16T05:51:53;99326.81;;;24.15;76.99
70103;BME280;57470;50.034;15.256;2023-07-16T05:54:21;99321.38;;;23.93;79.68
70103;BME280;57470;50.034;15.256;2023-07-16T05:56:47;99329.59;;;23.79;81.40
70103;BME280;57470;50.034;15.256;2023-07-16T05:59:12;99326.56;;;23.38;nan
70103;BME280;57470;50.034;15.256;2023-07-16T06:01:37;99326.56;;;23.38;83.93
70103;BME280;57470;50.034;15.256;2023-07-16T06:04:03;99310.72;;;23.05;86.67
70103;BME280;57470;50.034;15.256;2023-07-16T06:06:30;99311.91;;;23.32;87.65
70103;BME280;57470;50.034;15.256;2023-07-16T06:08:55;99292.00;;;23.46;86.74
70103;BME280;57470;50.034;15.256;2023-07-16T06:11:21;99292.78;;;23.40;87.96
70103;BME280;57470;50.034;15.256;2023-07-16T06:13:46;99297.63;;;23.60;87.71
70103;BME280;57470;50.034;15.256;2023-07-16T06:16:11;99291.28;;;23.38;89.09
70103;BME280;57470;50.034;15.256;2023-07-16T06:18:37;99282.41;;;23.29;88.05
70103;BME280;57470;50.034;15.256;2023-07-16T06:21:02;99281.75;;;23.42;89.09
70103;BME280;57470;50.034;15.256;2023-07-16T06:23:28;99266.19;;;23.36;88.59
70103;BME280;57470;50.034;15.256;2023-07-16T06:25:54;99262.34;;;23.45;87.12
70103;BME280;57470;50.034;15.256;2023-07-16T06:28:20;99280.88;;;23.56;87.88
70103;BME280;57470;50.034;15.256;2023-07-16T06:30:46;99282.41;;;23.44;88.46
70103;BME280;57470;50.034;15.256;2023-07-16T06:33:11;99279.59;;;23.37;88.40
70103;BME280;57470;50.034;15.256;2023-07-16T06:35:36;99278.09;;;23.49;89.83
70103;BME280;57470;50.034;15.256;2023-07-16T06:38:02;99249.31;;;23.19;91.73
70103;BME280;57470;50.034;15.256;2023-07-16T06:40:30;99251.59;;;23.15;91.07
70103;BME280;57470;50.034;15.256;2023-07-16T06:42:57;99241.22;;;23.04;91.93
70103;BME280;57470;50.034;15.256;2023-07-16T06:45:24;99236.69;;;23.26;91.59
70103;BME280;57470;50.034;15.256;2023-07-16T06:47:50;99243.28;;;22.73;94.77
70103;BME280;57470;50.034;15.256;2023-07-16T06:50:17;99251.00;;;21.80;100.00
70103;BME280;57470;50.034;15.256;2023-07-16T06:52:43;99268.75;;;22.05;100.00
70103;BME280;57470;50.034;15.256;2023-07-16T06:55:09;99249.28;;;22.54;96.04
70103;BME280;57470;50.034;15.256;2023-07-16T06:57:35;99259.47;;;22.52;95.88
70103;BME280;57470;50.034;15.256;2023-07-16T07:00:01;99254.09;;;22.81;96.11
70103;BME280;57470;50.034;15.256;2023-07-16T07:02:27;99243.13;;;22.89;95.55
70103;BME280;57470;50.034;15.256;2023-07-16T07:04:52;99234.28;;;23.02;94.88
70103;BME280;57470;50.034;15.256;2023-07-16T07:07:17;99220.00;;;22.64;95.70
70103;BME280;57470;50.034;15.256;2023-07-16T07:09:43;99243.00;;;22.38;96.85
70103;BME280;57470;50.034;15.256;2023-07-16T07:12:12;99248.09;;;22.04;99.28
70103;BME280;57470;50.034;15.256;2023-07-16T07:14:37;99248.97;;;21.82;100.00
70103;BME280;57470;50.034;15.256;2023-07-16T07:17:03;99233.00;;;21.87;100.00
70103;BME280;57470;50.034;15.256;2023-07-16T07:19:28;99217.19;;;22.13;100.00
70103;BME280;57470;50.034;15.256;2023-07-16T07:21:53;99241.47;;;21.84;100.00
70103;BME280;57470;50.034;15.256;2023-07-16T07:24:19;99241.31;;;22.08;100.00
70103;BME280;57470;50.034;15.256;2023-07-16T07:26:44;99249.94;;;22.41;99.44
70103;BME280;57470;50.034;15.256;2023-07-16T07:29:09;99271.19;;;22.81;97.32
70103;BME280;57470;50.034;15.256;2023-07-16T07:31:35;99281.91;;;23.04;96.89
70103;BME280;57470;50.034;15.256;2023-07-16T07:34:00;99279.47;;;23.09;96.43
70103;BME280;57470;50.034;15.256;2023-07-16T07:36:26;99287.22;;;23.12;95.31
70103;BME280;57470;50.034;15.256;2023-07-16T07:38:51;99293.56;;;23.19;94.74
70103;BME280;57470;50.034;15.256;2023-07-16T07:41:16;99285.59;;;23.33;95.29
70103;BME280;57470;50.034;15.256;2023-07-16T07:43:42;99297.41;;;23.25;93.52
70103;BME280;57470;50.034;15.256;2023-07-16T07:46:08;99294.59;;;23.18;93.00
70103;BME280;57470;50.034;15.256;2023-07-16T07:48:33;99294.81;;;23.17;93.74
70103;BME280;57470;50.034;15.256;2023-07-16T07:50:59;99301.13;;;23.39;93.82
70103;BME280;57470;50.034;15.256;2023-07-16T07:53:24;99310.06;;;23.54;92.21
70103;BME280;57470;50.034;15.256;2023-07-16T07:55:49;99307.66;;;23.59;90.98
70103;BME280;57470;50.034;15.256;2023-07-16T07:58:15;99308.09;;;23.63;90.00
70103;BME280;57470;50.034;15.256;2023-07-16T08:00:40;99308.56;;;23.66;92.14
70103;BME280;57470;50.034;15.256;2023-07-16T08:03:05;99300.81;;;23.84;89.32
70103;BME280;57470;50.034;15.256;2023-07-16T08:05:31;99316.31;;;23.90;89.63
70103;BME280;57470;50.034;15.256;2023-07-16T08:07:56;99337.59;;;23.87;89.36
70103;BME280;57470;50.034;15.256;2023-07-16T08:10:22;99336.63;;;23.94;89.32
70103;BME280;57470;50.034;15.256;2023-07-16T08:12:47;99338.19;;;24.04;88.69
70103;BME280;57470;50.034;15.256;2023-07-16T08:15:13;99340.38;;;24.15;87.46
70103;BME280;57470;50.034;15.256;2023-07-16T08:17:43;99339.63;;;24.21;87.49
70103;BME280;57470;50.034;15.256;2023-07-16T08:20:09;99339.34;;;24.37;88.12
70103;BME280;57470;50.034;15.256;2023-07-16T08:22:34;99344.63;;;24.45;87.06
70103;BME280;57470;50.034;15.256;2023-07-16T08:25:00;99344.19;;;24.69;86.41
70103;BME280;57470;50.034;15.256;2023-07-16T08:27:25;99348.22;;;24.80;84.70
70103;BME280;57470;50.034;15.256;2023-07-16T08:29:51;99348.41;;;25.00;86.06
70103;BME280;57470;50.034;15.256;2023-07-16T08:32:16;99342.06;;;25.34;84.22
70103;BME280;57470;50.034;15.256;2023-07-16T08:34:42;99330.97;;;25.35;84.81
70103;BME280;57470;50.034;15.256;2023-07-16T08:37:07;99332.13;;;25.61;81.88
70103;BME280;57470;50.034;15.256;2023-07-16T08:39:33;99343.72;;;25.76;81.63
70103;BME280;57470;50.034;15.256;2023-07-16T08:41:59;99342.53;;;26.25;80.42
70103;BME280;57470;50.034;15.256;2023-07-16T08:44:24;99348.66;;;26.27;79.61
70103;BME280;57470;50.034;15.256;2023-07-16T08:46:50;99341.00;;;25.89;80.13
70103;BME280;57470;50.034;15.256;2023-07-16T08:49:18;99349.63;;;25.99;80.26
70103;BME280;57470;50.034;15.256;2023-07-16T08:51:47;99352.41;;;26.19;79.42
70103;BME280;57470;50.034;15.256;2023-07-16T08:54:13;99349.59;;;25.79;81.61
70103;BME280;57470;50.034;15.256;2023-07-16T08:56:43;99353.19;;;26.00;80.83
70103;BME280;57470;50.034;15.256;2023-07-16T08:59:09;99351.38;;;26.40;80.65
70103;BME280;57470;50.034;15.256;2023-07-16T09:01:36;99355.53;;;26.03;81.18
70103;BME280;57470;50.034;15.256;2023-07-16T09:04:02;99347.81;;;26.33;82.26
70103;BME280;57470;50.034;15.256;2023-07-16T09:06:28;99342.31;;;26.06;78.16
70103;BME280;57470;50.034;15.256;2023-07-16T09:08:53;99342.06;;;25.82;78.74
70103;BME280;57470;50.034;15.256;2023-07-16T09:11:20;99358.78;;;25.72;79.20
70103;BME280;57470;50.034;15.256;2023-07-16T09:13:47;99356.13;;;25.85;79.58
70103;BME280;57470;50.034;15.256;2023-07-16T09:16:13;99360.72;;;25.91;78.64
70103;BME280;57470;50.034;15.256;2023-07-16T09:18:40;99361.78;;;25.90;79.34
70103;BME280;57470;50.034;15.256;2023-07-16T09:21:06;99365.72;;;25.74;79.49
70103;BME280;57470;50.034;15.256;2023-07-16T09:23:32;99372.22;;;25.80;79.62
70103;BME280;57470;50.034;15.256;2023-07-16T09:25:58;99375.41;;;25.90;78.80
70103;BME280;57470;50.034;15.256;2023-07-16T09:28:24;99383.38;;;25.92;79.28
70103;BME280;57470;50.034;15.256;2023-07-16T09:30:50;99394.28;;;25.85;78.74
70103;BME280;57470;50.034;15.256;2023-07-16T09:33:18;99385.59;;;25.68;78.60
70103;BME280;57470;50.034;15.256;2023-07-16T09:35:44;99380.78;;;25.70;78.16
70103;BME280;57470;50.034;15.256;2023-07-16T09:38:10;99387.53;;;25.74;78.63
70103;BME280;57470;50.034;15.256;2023-07-16T09:40:36;99391.03;;;25.68;79.45
70103;BME280;57470;50.034;15.256;2023-07-16T09:43:03;99388.06;;;25.57;78.04
70103;BME280;57470;50.034;15.256;2023-07-16T09:45:29;99401.72;;;25.63;78.29
70103;BME280;57470;50.034;15.256;2023-07-16T09:47:55;99404.00;;;25.60;78.61
70103;BME280;57470;50.034;15.256;2023-07-16T09:50:23;99401.03;;;25.55;78.45
70103;BME280;57470;50.034;15.256;2023-07-16T09:52:49;99405.97;;;25.31;78.69
70103;BME280;57470;50.034;15.256;2023-07-16T09:55:16;99411.31;;;25.18;79.04
70103;BME280;57470;50.034;15.256;2023-07-16T09:57:42;99414.13;;;25.31;79.38
70103;BME280;57470;50.034;15.256;2023-07-16T10:00:12;99413.34;;;25.10;80.96
70103;BME280;57470;50.034;15.256;2023-07-16T10:02:39;99419.59;;;25.38;80.71
70103;BME280;57470;50.034;15.256;2023-07-16T10:05:31;99422.69;;;24.94;81.25
70103;BME280;57470;50.034;15.256;2023-07-16T10:08:00;99420.66;;;25.43;79.78
70103;BME280;57470;50.034;15.256;2023-07-16T10:10:47;99421.91;;;25.07;80.95
70103;BME280;57470;50.034;15.256;2023-07-16T10:13:17;99416.91;;;25.45;79.65
70103;BME280;57470;50.034;15.256;2023-07-16T10:15:56;99419.22;;;25.48;80.00
70103;BME280;57470;50.034;15.256;2023-07-16T10:18:27;99417.28;;;25.41;79.95
70103;BME280;57470;50.034;15.256;2023-07-16T10:20:53;99424.47;;;25.49;79.69
70103;BME280;57470;50.034;15.256;2023-07-16T10:23:18;99424.22;;;25.44;80.26
70103;BME280;57470;50.034;15.256;2023-07-16T10:26:00;99427.31;;;25.69;79.75
70103;BME280;57470;50.034;15.256;2023-07-16T10:28:26;99422.75;;;25.76;79.60
70103;BME280;57470;50.034;15.256;2023-07-16T10:30:52;99425.09;;;25.92;79.10
70103;BME280;57470;50.034;15.256;2023-07-16T10:33:17;99417.72;;;25.86;78.63
70103;BME280;57470;50.034;15.256;2023-07-16T10:35:45;99411.66;;;25.91;79.22
70103;BME280;57470;50.034;15.256;2023-07-16T10:38:10;99423.66;;;26.03;77.92
70103;BME280;57470;50.034;15.256;2023-07-16T10:40:45;99423.47;;;26.17;77.53
70103;BME280;57470;50.034;15.256;2023-07-16T10:43:14;99424.16;;;26.33;77.25
70103;BME280;57470;50.034;15.256;2023-07-16T10:45:39;99424.91;;;26.07;76.96
70103;BME280;57470;50.034;15.256;2023-07-16T10:48:05;99430.81;;;26.10;77.00
70103;BME280;57470;50.034;15.256;2023-07-16T10:50:34;99435.03;;;26.20;75.12
70103;BME280;57470;50.034;15.256;2023-07-16T10:53:00;99437.16;;;26.31;74.41
70103;BME280;57470;50.034;15.256;2023-07-16T10:55:27;99431.94;;;26.36;72.26
70103;BME280;57470;50.034;15.256;2023-07-16T10:57:53;99425.03;;;26.53;72.94
70103;BME280;57470;50.034;15.256;2023-07-16T11:00:20;99427.56;;;26.55;71.17
70103;BME280;57470;50.034;15.256;2023-07-16T11:02:46;99431.75;;;26.57;70.05
70103;BME280;57470;50.034;15.256;2023-07-16T11:05:14;99432.59;;;26.84;69.31
70103;BME280;57470;50.034;15.256;2023-07-16T11:07:43;99431.66;;;27.62;67.64
70103;BME280;57470;50.034;15.256;2023-07-16T11:10:10;99423.19;;;27.77;66.82
70103;BME280;57470;50.034;15.256;2023-07-16T11:12:35;99436.81;;;28.28;66.07
70103;BME280;57470;50.034;15.256;2023-07-16T11:15:00;99436.88;;;28.15;66.07
70103;BME280;57470;50.034;15.256;2023-07-16T11:17:26;99435.03;;;28.09;66.15
70103;BME280;57470;50.034;15.256;2023-07-16T11:19:52;99433.38;;;28.40;63.87
70103;BME280;57470;50.034;15.256;2023-07-16T11:22:24;99441.19;;;28.36;64.45
70103;BME280;57470;50.034;15.256;2023-07-16T11:24:51;99437.38;;;27.54;65.58
70103;BME280;57470;50.034;15.256;2023-07-16T11:27:20;99446.75;;;28.23;63.27
70103;BME280;57470;50.034;15.256;2023-07-16T11:32:13;99440.75;;;27.94;62.84
70103;BME280;57470;50.034;15.256;2023-07-16T11:34:51;99443.28;;;27.96;63.01
70103;BME280;57470;50.034;15.256;2023-07-16T11:37:17;99451.81;;;27.68;62.86
70103;BME280;57470;50.034;15.256;2023-07-16T11:39:43;99447.19;;;27.69;62.72
70103;BME280;57470;50.034;15.256;2023-07-16T11:42:08;99449.00;;;28.32;62.40
70103;BME280;57470;50.034;15.256;2023-07-16T11:44:34;99448.38;;;28.62;61.30
70103;BME280;57470;50.034;15.256;2023-07-16T11:47:00;99437.47;;;28.87;61.50
70103;BME280;57470;50.034;15.256;2023-07-16T11:49:25;99432.72;;;29.19;61.04
70103;BME280;57470;50.034;15.256;2023-07-16T11:51:51;99443.31;;;28.90;60.74
70103;BME280;57470;50.034;15.256;2023-07-16T11:54:16;99443.56;;;28.89;60.34
70103;BME280;57470;50.034;15.256;2023-07-16T11:56:41;99437.69;;;28.85;60.03
70103;BME280;57470;50.034;15.256;2023-07-16T11:59:07;99441.41;;;28.34;61.33
70103;BME280;57470;50.034;15.256;2023-07-16T12:01:32;99444.06;;;28.79;60.69
70103;BME280;57470;50.034;15.256;2023-07-16T12:03:58;99436.00;;;28.21;61.43
70103;BME280;57470;50.034;15.256;2023-07-16T12:06:23;99426.06;;;28.90;60.47
70103;BME280;57470;50.034;15.256;2023-07-16T12:08:48;99433.72;;;29.06;60.22
70103;BME280;57470;50.034;15.256;2023-07-16T12:11:14;99425.72;;;28.80;59.67
70103;BME280;57470;50.034;15.256;2023-07-16T12:13:39;99425.47;;;28.81;60.12
70103;BME280;57470;50.034;15.256;2023-07-16T12:16:05;99421.88;;;28.56;60.31
70103;BME280;57470;50.034;15.256;2023-07-16T12:18:30;99418.78;;;28.46;61.09
70103;BME280;57470;50.034;15.256;2023-07-16T12:20:56;99416.03;;;28.21;61.31
70103;BME280;57470;50.034;15.256;2023-07-16T12:23:22;99417.22;;;28.31;61.52
70103;BME280;57470;50.034;15.256;2023-07-16T12:25:48;99413.75;;;28.11;61.39
70103;BME280;57470;50.034;15.256;2023-07-16T12:28:14;99429.28;;;28.24;61.38
70103;BME280;57470;50.034;15.256;2023-07-16T12:30:39;99422.19;;;28.03;59.68
70103;BME280;57470;50.034;15.256;2023-07-16T12:33:05;99418.84;;;27.56;61.63
70103;BME280;57470;50.034;15.256;2023-07-16T12:35:31;99420.56;;;27.38;61.20
70103;BME280;57470;50.034;15.256;2023-07-16T12:37:56;99417.94;;;26.92;62.09
70103;BME280;57470;50.034;15.256;2023-07-16T12:40:24;99405.91;;;27.19;61.86
70103;BME280;57470;50.034;15.256;2023-07-16T12:42:49;99407.78;;;27.25;61.09
70103;BME280;57470;50.034;15.256;2023-07-16T12:45:14;99423.41;;;26.92;61.51
70103;BME280;57470;50.034;15.256;2023-07-16T12:47:40;99416.22;;;26.90;61.18
70103;BME280;57470;50.034;15.256;2023-07-16T12:50:06;99422.56;;;26.91;61.96
70103;BME280;57470;50.034;15.256;2023-07-16T12:52:31;99420.00;;;26.83;61.95
70103;BME280;57470;50.034;15.256;2023-07-16T12:54:57;99420.00;;;26.89;61.39